createdAt,value
2023-03-29T00:02:13.272Z,6.08
2023-03-29T00:04:47.063Z,4.87
2023-03-29T00:07:21.740Z,6.22
2023-03-29T00:09:54.817Z,5.97
2023-03-29T00:12:28.299Z,7.92
2023-03-29T00:15:01.928Z,7.40
2023-03-29T00:17:35.462Z,5.10
2023-03-29T00:20:10.953Z,7.30
2023-03-29T00:22:44.490Z,6.10
2023-03-29T00:25:17.654Z,6.87
2023-03-29T00:27:50.758Z,6.05
2023-03-29T00:30:24.220Z,6.45
2023-03-29T00:32:57.445Z,5.92
2023-03-29T00:35:31.257Z,7.78
2023-03-29T00:38:06.252Z,5.97
2023-03-29T00:40:43.517Z,5.05
2023-03-29T00:43:17.183Z,5.97
2023-03-29T00:45:50.136Z,6.03
2023-03-29T00:48:25.924Z,5.33
2023-03-29T00:51:02.570Z,5.92
2023-03-29T00:53:38.540Z,5.22
2023-03-29T00:56:15.429Z,4.95
2023-03-29T00:58:51.916Z,5.80
2023-03-29T01:01:28.502Z,5.03
2023-03-29T01:04:04.826Z,7.72
2023-03-29T01:06:45.665Z,5.40
2023-03-29T01:09:21.360Z,6.92
2023-03-29T01:11:57.755Z,4.95
2023-03-29T01:14:34.764Z,5.92
2023-03-29T01:17:09.445Z,5.45
2023-03-29T01:19:45.820Z,3.70
2023-03-29T01:22:25.000Z,6.85
2023-03-29T01:25:07.210Z,6.10
2023-03-29T01:27:57.358Z,5.17
2023-03-29T01:30:33.586Z,5.92
2023-03-29T01:33:09.575Z,4.78
2023-03-29T01:35:47.066Z,6.03
2023-03-29T01:38:23.598Z,4.62
2023-03-29T01:40:57.893Z,5.15
2023-03-29T01:43:34.094Z,5.00
2023-03-29T01:46:09.324Z,5.60
2023-03-29T01:48:45.948Z,7.53
2023-03-29T01:51:22.221Z,6.25
2023-03-29T01:53:58.847Z,5.55
2023-03-29T01:56:37.749Z,6.35
2023-03-29T01:59:13.866Z,6.65
2023-03-29T02:01:49.961Z,4.83
2023-03-29T02:04:27.685Z,5.28
2023-03-29T02:07:03.388Z,6.28
2023-03-29T02:09:39.861Z,5.67
2023-03-29T02:12:16.953Z,4.83
2023-03-29T02:14:51.072Z,4.50
2023-03-29T02:17:29.400Z,4.90
2023-03-29T02:22:46.703Z,5.13
2023-03-29T02:25:22.525Z,3.00
2023-03-29T02:27:56.942Z,3.83
2023-03-29T02:30:33.356Z,5.55
2023-03-29T02:33:10.727Z,5.97
2023-03-29T02:35:48.635Z,5.83
2023-03-29T02:40:55.608Z,4.47
2023-03-29T02:43:31.001Z,5.55
2023-03-29T02:46:06.471Z,5.03
2023-03-29T02:48:40.935Z,6.10
2023-03-29T02:51:19.771Z,4.30
2023-03-29T02:56:26.171Z,5.47
2023-03-29T02:58:59.361Z,4.95
2023-03-29T03:01:32.692Z,6.45
2023-03-29T03:04:08.035Z,5.00
2023-03-29T03:06:41.949Z,5.75
2023-03-29T03:09:16.425Z,4.20
2023-03-29T03:11:51.319Z,6.20
2023-03-29T03:14:24.531Z,4.12
2023-03-29T03:16:58.272Z,5.97
2023-03-29T03:19:31.579Z,6.92
2023-03-29T03:22:06.048Z,6.25
2023-03-29T03:24:39.204Z,5.33
2023-03-29T03:27:12.603Z,7.55
2023-03-29T03:29:46.098Z,5.85
2023-03-29T03:32:30.094Z,7.25
2023-03-29T03:35:10.023Z,4.85
2023-03-29T03:37:43.437Z,6.20
2023-03-29T03:40:17.445Z,4.58
2023-03-29T03:42:51.289Z,5.05
2023-03-29T03:45:24.796Z,7.05
2023-03-29T03:47:59.584Z,7.12
2023-03-29T03:50:50.622Z,5.60
2023-03-29T03:53:24.887Z,5.62
2023-03-29T03:56:16.359Z,5.15
2023-03-29T03:59:07.095Z,4.72
2023-03-29T04:01:50.484Z,6.42
2023-03-29T04:04:25.647Z,5.40
2023-03-29T04:07:02.133Z,4.97
2023-03-29T04:09:53.659Z,4.05
2023-03-29T04:12:44.058Z,5.72
2023-03-29T04:15:19.755Z,5.22
2023-03-29T04:17:54.628Z,10.18
2023-03-29T04:20:29.750Z,7.08
2023-03-29T04:23:04.426Z,6.42
2023-03-29T04:25:38.078Z,7.03
2023-03-29T04:28:21.650Z,6.58
2023-03-29T04:30:56.404Z,6.42
2023-03-29T04:33:36.859Z,4.83
2023-03-29T04:36:11.551Z,5.28
2023-03-29T04:38:47.789Z,4.05
2023-03-29T04:41:22.107Z,4.62
2023-03-29T04:44:03.528Z,4.58
2023-03-29T04:46:39.134Z,5.25
2023-03-29T04:49:17.106Z,4.95
2023-03-29T04:51:51.744Z,6.22
2023-03-29T04:54:27.382Z,6.20
2023-03-29T04:59:51.593Z,5.10
2023-03-29T05:02:27.284Z,5.83
2023-03-29T05:05:00.465Z,4.60
2023-03-29T05:07:34.482Z,4.17
2023-03-29T05:10:09.782Z,7.37
2023-03-29T05:12:47.015Z,6.12
2023-03-29T05:15:20.596Z,4.45
2023-03-29T05:17:54.608Z,5.10
2023-03-29T05:20:28.568Z,6.47
2023-03-29T05:23:01.868Z,6.17
2023-03-29T05:25:55.725Z,6.08
2023-03-29T05:28:28.856Z,4.85
2023-03-29T05:31:06.770Z,6.58
2023-03-29T05:33:41.560Z,4.28
2023-03-29T05:36:17.587Z,7.85
2023-03-29T05:38:52.312Z,7.87
2023-03-29T05:41:26.900Z,9.28
2023-03-29T05:44:09.649Z,4.55
2023-03-29T05:46:44.152Z,5.70
2023-03-29T05:49:18.856Z,4.50
2023-03-29T05:51:57.236Z,7.83
2023-03-29T05:54:30.917Z,8.38
2023-03-29T05:57:05.242Z,7.42
2023-03-29T05:59:38.563Z,5.72
2023-03-29T06:02:12.858Z,4.17
2023-03-29T06:04:47.786Z,8.20
2023-03-29T06:07:25.614Z,6.45
2023-03-29T06:12:55.724Z,9.28
2023-03-29T06:15:30.029Z,6.37
2023-03-29T06:18:06.069Z,8.43
2023-03-29T06:20:40.493Z,8.48
2023-03-29T06:23:15.529Z,5.20
2023-03-29T06:25:50.869Z,5.65
2023-03-29T06:28:24.892Z,3.60
2023-03-29T06:31:00.964Z,3.83
2023-03-29T06:33:37.886Z,4.58
2023-03-29T06:36:15.513Z,5.85
2023-03-29T06:38:49.307Z,4.25
2023-03-29T06:41:36.832Z,6.33
2023-03-29T06:44:11.534Z,3.72
2023-03-29T06:46:46.737Z,2.98
2023-03-29T06:49:20.808Z,8.68
2023-03-29T06:52:01.551Z,4.97
2023-03-29T06:54:35.267Z,5.83
2023-03-29T06:57:08.797Z,3.77
2023-03-29T06:59:41.775Z,4.50
2023-03-29T07:02:17.495Z,7.10
2023-03-29T07:05:02.055Z,4.28
2023-03-29T07:07:39.443Z,6.20
2023-03-29T07:10:15.169Z,3.72
2023-03-29T07:12:50.152Z,4.00
2023-03-29T07:15:25.204Z,3.85
2023-03-29T07:18:09.350Z,3.10
2023-03-29T07:20:45.908Z,4.33
2023-03-29T07:23:19.656Z,6.05
2023-03-29T07:25:52.980Z,3.75
2023-03-29T07:28:26.151Z,3.47
2023-03-29T07:31:06.859Z,4.37
2023-03-29T07:33:42.580Z,4.97
2023-03-29T07:36:16.695Z,4.72
2023-03-29T07:38:50.033Z,2.98
2023-03-29T07:41:24.867Z,7.15
2023-03-29T07:44:03.335Z,3.72
2023-03-29T07:46:36.581Z,4.22
2023-03-29T07:49:09.768Z,3.92
2023-03-29T07:51:43.772Z,3.80
2023-03-29T07:54:17.827Z,4.17
2023-03-29T07:56:52.834Z,3.33
2023-03-29T07:59:29.148Z,4.70
2023-03-29T08:02:10.501Z,4.58
2023-03-29T08:04:46.139Z,5.67
2023-03-29T08:07:24.501Z,8.73
2023-03-29T08:09:59.314Z,4.33
2023-03-29T08:12:34.353Z,8.85
2023-03-29T08:15:09.592Z,4.22
2023-03-29T08:17:44.821Z,3.95
2023-03-29T08:20:18.326Z,10.30
2023-03-29T08:22:52.802Z,6.08
2023-03-29T08:25:43.902Z,6.33
2023-03-29T08:28:17.987Z,3.45
2023-03-29T08:30:53.603Z,4.15
2023-03-29T08:33:27.218Z,3.77
2023-03-29T08:36:02.092Z,3.92
2023-03-29T08:38:37.123Z,6.95
2023-03-29T08:41:16.305Z,5.72
2023-03-29T08:43:56.376Z,5.40
2023-03-29T08:46:51.940Z,3.80
2023-03-29T08:49:30.839Z,3.85
2023-03-29T08:52:06.947Z,4.47
2023-03-29T08:54:45.039Z,3.77
2023-03-29T08:57:36.843Z,5.72
2023-03-29T09:02:49.657Z,6.30
2023-03-29T09:05:27.991Z,4.25
2023-03-29T09:08:20.700Z,5.33
2023-03-29T09:11:03.306Z,3.47
2023-03-29T09:13:42.032Z,6.12
2023-03-29T09:16:19.371Z,5.78
2023-03-29T09:18:59.890Z,6.70
2023-03-29T09:21:37.803Z,5.75
2023-03-29T09:26:54.701Z,2.45
2023-03-29T09:29:45.050Z,4.53
2023-03-29T09:32:23.228Z,6.53
2023-03-29T09:35:03.417Z,4.75
2023-03-29T09:37:39.437Z,8.20
2023-03-29T09:40:17.551Z,5.17
2023-03-29T09:42:57.356Z,5.90
2023-03-29T09:45:30.604Z,8.10
2023-03-29T09:48:07.917Z,5.22
2023-03-29T09:50:44.540Z,8.48
2023-03-29T09:53:19.132Z,5.50
2023-03-29T09:55:55.454Z,5.45
2023-03-29T09:58:32.878Z,8.38
2023-03-29T10:01:10.483Z,9.40
2023-03-29T10:03:44.091Z,8.60
2023-03-29T10:06:19.997Z,9.03
2023-03-29T10:08:58.643Z,5.70
2023-03-29T10:11:38.196Z,5.45
2023-03-29T10:16:57.632Z,7.00
2023-03-29T10:25:00.092Z,8.78
2023-03-29T10:27:35.426Z,5.60
2023-03-29T10:30:14.043Z,6.03
2023-03-29T10:32:48.199Z,4.67
2023-03-29T10:35:26.364Z,5.90
2023-03-29T10:38:01.556Z,8.78
2023-03-29T10:40:36.902Z,5.62
2023-03-29T10:43:17.161Z,5.85
2023-03-29T10:45:52.062Z,7.22
2023-03-29T10:48:29.376Z,6.35
2023-03-29T10:51:04.184Z,6.10
2023-03-29T10:53:38.897Z,4.90
2023-03-29T10:56:28.858Z,10.50
2023-03-29T11:02:46.106Z,6.00
2023-03-29T11:05:26.172Z,5.75
2023-03-29T11:08:18.365Z,7.78
2023-03-29T11:10:57.774Z,5.50
2023-03-29T11:13:35.432Z,5.20
2023-03-29T11:16:14.201Z,9.38
2023-03-29T11:19:04.746Z,8.63
2023-03-29T11:21:42.047Z,7.85
2023-03-29T11:24:32.040Z,6.10
2023-03-29T11:27:13.172Z,7.10
2023-03-29T11:29:52.876Z,5.92
2023-03-29T11:32:29.216Z,4.75
2023-03-29T11:35:09.586Z,10.15
2023-03-29T11:37:46.941Z,7.17
2023-03-29T11:40:34.123Z,5.97
2023-03-29T11:43:11.456Z,6.12
2023-03-29T11:45:48.012Z,6.37
2023-03-29T11:48:24.410Z,7.00
2023-03-29T11:51:01.015Z,6.62
2023-03-29T11:53:37.834Z,4.30
2023-03-29T11:56:14.503Z,4.42
2023-03-29T11:58:53.184Z,5.33
2023-03-29T12:01:29.505Z,4.83
2023-03-29T12:04:06.945Z,4.90
2023-03-29T12:06:44.001Z,3.85
2023-03-29T12:09:26.189Z,5.67
2023-03-29T12:12:03.860Z,5.87
2023-03-29T12:14:45.766Z,5.17
2023-03-29T12:17:22.136Z,4.55
2023-03-29T12:20:06.523Z,5.08
2023-03-29T12:22:41.413Z,5.28
2023-03-29T12:25:18.891Z,5.15
2023-03-29T12:27:59.094Z,5.37
2023-03-29T12:30:50.236Z,4.95
2023-03-29T12:34:03.534Z,4.25
2023-03-29T12:36:49.997Z,4.90
2023-03-29T12:39:26.873Z,4.62
2023-03-29T12:42:21.083Z,4.78
2023-03-29T12:45:20.904Z,6.65
2023-03-29T12:47:54.265Z,5.05
2023-03-29T12:50:30.785Z,4.62
2023-03-29T12:53:09.706Z,8.28
2023-03-29T12:55:53.959Z,6.05
2023-03-29T12:58:31.560Z,5.10
2023-03-29T13:01:10.859Z,4.72
2023-03-29T13:03:50.012Z,6.37
2023-03-29T13:06:35.435Z,5.72
2023-03-29T13:09:24.131Z,4.17
2023-03-29T13:11:59.074Z,4.33
2023-03-29T13:14:35.344Z,7.97
2023-03-29T13:17:18.828Z,4.75
2023-03-29T13:19:52.536Z,5.83
2023-03-29T13:22:29.542Z,6.80
2023-03-29T13:25:24.180Z,5.43
2023-03-29T13:28:00.422Z,5.00
2023-03-29T13:30:43.790Z,5.83
2023-03-29T13:33:26.200Z,6.35
2023-03-29T13:36:02.930Z,3.87
2023-03-29T13:38:47.079Z,5.93
2023-03-29T13:41:30.666Z,5.70
2023-03-29T13:44:05.853Z,5.45
2023-03-29T13:46:41.504Z,5.65
2023-03-29T13:49:20.961Z,6.42
2023-03-29T13:52:11.050Z,4.50
2023-03-29T13:54:48.188Z,6.03
2023-03-29T13:57:23.641Z,4.40
2023-03-29T14:00:01.229Z,6.60
2023-03-29T14:02:39.798Z,8.48
2023-03-29T14:05:16.252Z,5.58
2023-03-29T14:07:52.709Z,5.87
2023-03-29T14:10:29.465Z,4.08
2023-03-29T14:13:04.168Z,9.90
2023-03-29T14:15:46.087Z,6.87
2023-03-29T14:18:22.508Z,9.28
2023-03-29T14:20:57.029Z,6.40
2023-03-29T14:23:33.598Z,5.55
2023-03-29T14:26:12.672Z,8.65
2023-03-29T14:28:48.820Z,5.90
2023-03-29T14:31:23.789Z,6.03
2023-03-29T14:33:58.992Z,6.70
2023-03-29T14:36:36.672Z,10.03
2023-03-29T14:39:14.902Z,7.75
2023-03-29T14:41:52.864Z,11.22
2023-03-29T14:44:28.668Z,8.53
2023-03-29T14:47:02.997Z,9.95
2023-03-29T14:49:36.030Z,8.23
2023-03-29T14:52:11.093Z,7.97
2023-03-29T14:54:47.920Z,8.33
2023-03-29T14:57:22.677Z,12.55
2023-03-29T14:59:58.197Z,6.20
2023-03-29T15:02:33.200Z,8.63
2023-03-29T15:05:09.494Z,8.08
2023-03-29T15:07:44.388Z,6.90
2023-03-29T15:10:20.787Z,10.45
2023-03-29T15:12:54.868Z,10.63
2023-03-29T15:15:28.404Z,11.70
2023-03-29T15:18:02.143Z,8.53
2023-03-29T15:20:39.037Z,6.90
2023-03-29T15:23:24.359Z,9.45
2023-03-29T15:25:59.930Z,9.28
2023-03-29T15:28:35.039Z,10.05
2023-03-29T15:31:14.940Z,15.10
2023-03-29T15:33:48.451Z,9.65
2023-03-29T15:36:21.996Z,5.60
2023-03-29T15:38:55.399Z,10.82
2023-03-29T15:41:28.697Z,13.03
2023-03-29T15:44:02.057Z,8.43
2023-03-29T15:46:35.439Z,11.15
2023-03-29T15:49:10.985Z,12.20
2023-03-29T15:51:44.058Z,9.85
2023-03-29T15:54:17.494Z,10.00
2023-03-29T15:56:54.167Z,11.08
2023-03-29T15:59:28.150Z,11.43
2023-03-29T16:02:01.991Z,8.10
2023-03-29T16:04:35.332Z,8.18
2023-03-29T16:07:14.296Z,12.53
2023-03-29T16:09:49.218Z,14.13
2023-03-29T16:12:23.474Z,8.55
2023-03-29T16:14:56.602Z,7.30
2023-03-29T16:17:31.085Z,11.08
2023-03-29T16:20:05.888Z,10.05
2023-03-29T16:22:38.926Z,14.60
2023-03-29T16:25:17.285Z,8.95
2023-03-29T16:27:50.949Z,11.18
2023-03-29T16:30:24.988Z,10.45
2023-03-29T16:32:58.374Z,9.38
2023-03-29T16:35:34.078Z,10.58
2023-03-29T16:38:07.724Z,12.47
2023-03-29T16:40:41.241Z,10.35
2023-03-29T16:43:18.789Z,11.55
2023-03-29T16:45:52.470Z,9.88
2023-03-29T16:48:27.147Z,12.75
2023-03-29T16:51:01.013Z,12.88
2023-03-29T16:53:34.432Z,16.62
2023-03-29T16:56:09.116Z,10.82
2023-03-29T16:58:43.472Z,16.48
2023-03-29T17:01:19.308Z,10.23
2023-03-29T17:03:52.529Z,11.78
2023-03-29T17:06:26.445Z,15.75
2023-03-29T17:09:00.773Z,14.65
2023-03-29T17:11:34.666Z,13.45
2023-03-29T17:14:07.848Z,13.62
2023-03-29T17:16:41.122Z,13.25
2023-03-29T17:19:14.581Z,14.23
2023-03-29T17:21:47.762Z,7.70
2023-03-29T17:24:21.025Z,15.75
2023-03-29T17:26:54.199Z,13.78
2023-03-29T17:29:27.491Z,12.58
2023-03-29T17:32:01.006Z,14.28
2023-03-29T17:34:34.766Z,14.50
2023-03-29T17:37:09.677Z,17.32
2023-03-29T17:39:43.328Z,11.65
2023-03-29T17:42:17.979Z,15.68
2023-03-29T17:44:50.960Z,13.53
2023-03-29T17:47:24.304Z,13.55
2023-03-29T17:49:57.314Z,18.20
2023-03-29T17:52:30.857Z,18.42
2023-03-29T17:55:04.460Z,15.53
2023-03-29T17:57:37.727Z,15.90
2023-03-29T18:00:14.156Z,19.55
2023-03-29T18:02:47.598Z,17.75
2023-03-29T18:05:21.229Z,17.65
2023-03-29T18:10:37.649Z,18.85
2023-03-29T18:13:14.017Z,19.23
2023-03-29T18:15:47.994Z,14.38
2023-03-29T18:18:22.239Z,14.98
2023-03-29T18:20:56.953Z,17.23
2023-03-29T18:23:31.714Z,18.20
2023-03-29T18:26:06.790Z,19.75
2023-03-29T18:28:41.748Z,17.02
2023-03-29T18:31:16.521Z,17.00
2023-03-29T18:33:50.294Z,16.80
2023-03-29T18:36:25.356Z,18.57
2023-03-29T18:39:00.935Z,17.10
2023-03-29T18:41:34.996Z,17.35
2023-03-29T18:44:08.424Z,19.30
2023-03-29T18:46:41.816Z,12.68
2023-03-29T18:49:14.854Z,14.38
2023-03-29T18:51:50.170Z,17.62
2023-03-29T18:54:23.723Z,17.65
2023-03-29T18:56:59.154Z,22.98
2023-03-29T18:59:34.984Z,15.85
2023-03-29T19:02:08.338Z,18.87
2023-03-29T19:04:41.936Z,17.92
2023-03-29T19:07:15.398Z,20.62
2023-03-29T19:09:48.652Z,19.52
2023-03-29T19:12:21.635Z,14.53
2023-03-29T19:14:55.138Z,14.35
2023-03-29T19:17:28.669Z,26.12
2023-03-29T19:20:01.793Z,24.05
2023-03-29T19:22:34.928Z,21.27
2023-03-29T19:25:10.519Z,21.00
2023-03-29T19:27:46.394Z,21.00
2023-03-29T19:30:20.246Z,22.17
2023-03-29T19:32:53.523Z,20.45
2023-03-29T19:35:26.779Z,21.93
2023-03-29T19:38:00.431Z,20.40
2023-03-29T19:40:33.632Z,18.23
2023-03-29T19:43:07.288Z,21.30
2023-03-29T19:45:40.697Z,23.77
2023-03-29T19:48:21.757Z,21.40
2023-03-29T19:50:49.571Z,20.52
2023-03-29T19:53:23.302Z,17.77
2023-03-29T19:55:56.221Z,23.57
2023-03-29T19:58:29.450Z,21.73
2023-03-29T20:01:02.752Z,20.23
2023-03-29T20:03:36.382Z,21.15
2023-03-29T20:06:10.422Z,24.80
2023-03-29T20:08:44.430Z,21.97
2023-03-29T20:11:20.253Z,19.45
2023-03-29T20:13:54.369Z,24.90
2023-03-29T20:16:29.825Z,21.05
2023-03-29T20:19:03.710Z,22.00
2023-03-29T20:21:38.144Z,18.10
2023-03-29T20:24:12.846Z,23.07
2023-03-29T20:26:46.708Z,19.87
2023-03-29T20:29:20.870Z,22.85
2023-03-29T20:31:56.222Z,20.95
2023-03-29T20:34:30.517Z,19.62
2023-03-29T20:37:04.309Z,20.27
2023-03-29T20:39:37.426Z,19.57
2023-03-29T20:42:11.314Z,23.42
2023-03-29T20:44:47.629Z,21.95
2023-03-29T20:47:21.150Z,25.90
2023-03-29T20:49:54.933Z,22.40
2023-03-29T20:52:28.603Z,22.90
2023-03-29T20:55:01.869Z,26.82
2023-03-29T20:57:36.056Z,18.65
2023-03-29T21:00:12.780Z,26.00
2023-03-29T21:02:46.286Z,24.57
2023-03-29T21:05:20.160Z,24.98
2023-03-29T21:07:55.523Z,21.33
2023-03-29T21:10:34.964Z,22.55
2023-03-29T21:13:08.122Z,25.30
2023-03-29T21:15:41.696Z,23.10
2023-03-29T21:18:14.794Z,25.72
2023-03-29T21:20:49.793Z,25.10
2023-03-29T21:23:22.863Z,18.90
2023-03-29T21:25:56.931Z,22.22
2023-03-29T21:28:30.507Z,25.40
2023-03-29T21:31:07.274Z,23.07
2023-03-29T21:33:40.589Z,28.03
2023-03-29T21:36:13.663Z,27.30
2023-03-29T21:38:46.819Z,28.20
2023-03-29T21:41:20.127Z,27.82
2023-03-29T21:43:53.258Z,30.85
2023-03-29T21:46:26.821Z,31.73
2023-03-29T21:49:00.046Z,29.57
2023-03-29T21:51:33.515Z,24.87
2023-03-29T21:54:07.183Z,27.75
2023-03-29T21:56:40.491Z,28.92
2023-03-29T21:59:13.873Z,32.58
2023-03-29T22:01:47.335Z,30.17
2023-03-29T22:04:35.391Z,34.03
2023-03-29T22:06:56.041Z,31.42
2023-03-29T22:09:29.316Z,35.65
2023-03-29T22:12:02.958Z,27.70
2023-03-29T22:14:36.848Z,36.73
2023-03-29T22:17:10.300Z,33.38
2023-03-29T22:19:43.506Z,34.40
2023-03-29T22:22:17.697Z,38.98
2023-03-29T22:24:52.648Z,33.00
2023-03-29T22:27:26.100Z,35.10
2023-03-29T22:29:59.314Z,29.30
2023-03-29T22:32:34.956Z,34.58
2023-03-29T22:35:10.150Z,36.17
2023-03-29T22:37:44.452Z,32.45
2023-03-29T22:40:18.058Z,34.92
2023-03-29T22:42:51.386Z,33.45
2023-03-29T22:45:24.573Z,31.17
2023-03-29T22:47:57.690Z,27.77
2023-03-29T22:50:31.742Z,33.95
2023-03-29T22:53:04.576Z,31.80
2023-03-29T22:55:38.874Z,31.40
2023-03-29T22:58:12.735Z,33.33
2023-03-29T23:00:46.773Z,28.25
2023-03-29T23:03:21.107Z,29.42
2023-03-29T23:05:56.621Z,29.98
2023-03-29T23:08:33.514Z,29.12
2023-03-29T23:11:07.989Z,30.27
2023-03-29T23:13:41.945Z,31.77
2023-03-29T23:16:16.564Z,31.12
2023-03-29T23:18:50.744Z,31.25
2023-03-29T23:21:23.952Z,32.80
2023-03-29T23:23:57.562Z,35.85
2023-03-29T23:26:30.731Z,32.98
2023-03-29T23:29:04.187Z,34.13
2023-03-29T23:31:37.852Z,32.90
2023-03-29T23:34:11.161Z,34.35
2023-03-29T23:36:44.291Z,32.65
2023-03-29T23:39:17.464Z,28.67
2023-03-29T23:41:50.661Z,31.05
2023-03-29T23:44:23.944Z,29.30
2023-03-29T23:46:57.265Z,30.97
2023-03-29T23:49:30.803Z,40.23
2023-03-29T23:52:04.107Z,32.23
2023-03-29T23:54:37.268Z,33.25
2023-03-29T23:57:11.327Z,28.77
2023-03-29T23:59:44.326Z,35.48
